Terminal Aerodrome Forecast
Issued by NWS Jackson, MS

Current Version | Previous Version | Text Only | Print | Product List | Glossary On
Versions: 1 2 3 4 5 6 7 8 9 10 11 12
000
FTUS44 KMEG 291730
TAFTUP
TAF
KTUP 291730Z 2918/3018 35012G18KT P6SM SCT040
     FM300100 02005KT P6SM SCT050
     FM300800 01003KT P6SM BKN035
     FM301500 35005KT P6SM SCT050=

USA.gov is the U.S. government's official web portal to all federal, state and local government web resources and services.